sensor_id;sensor_type;location;lat;lon;timestamp;pressure;altitude;pressure_sealevel;temperature;humidity
9855;BME280;4966;48.112;9.282;2022-11-20T00:00:41;94197.19;;;2.46;88.11
9855;BME280;4966;48.112;9.282;2022-11-20T00:03:06;94189.22;;;2.41;87.78
9855;BME280;4966;48.112;9.282;2022-11-20T00:05:32;94192.19;;;2.39;88.14
9855;BME280;4966;48.112;9.282;2022-11-20T00:07:58;94198.97;;;2.50;88.21
9855;BME280;4966;48.112;9.282;2022-11-20T00:10:23;94201.63;;;2.37;87.96
9855;BME280;4966;48.112;9.282;2022-11-20T00:12:48;94198.56;;;2.29;91.19
9855;BME280;4966;48.112;9.282;2022-11-20T00:15:14;94204.34;;;2.50;89.40
9855;BME280;4966;48.112;9.282;2022-11-20T00:17:39;94218.88;;;2.49;88.43
9855;BME280;4966;48.112;9.282;2022-11-20T00:20:05;94213.06;;;2.56;88.45
9855;BME280;4966;48.112;9.282;2022-11-20T00:22:30;94218.97;;;2.44;87.73
9855;BME280;4966;48.112;9.282;2022-11-20T00:24:56;94211.88;;;2.34;87.57
9855;BME280;4966;48.112;9.282;2022-11-20T00:27:22;94209.38;;;2.24;87.74
9855;BME280;4966;48.112;9.282;2022-11-20T00:29:48;94224.47;;;2.06;88.55
9855;BME280;4966;48.112;9.282;2022-11-20T00:32:13;94221.72;;;1.79;90.35
9855;BME280;4966;48.112;9.282;2022-11-20T00:34:38;94220.66;;;1.80;90.34
9855;BME280;4966;48.112;9.282;2022-11-20T00:37:04;94222.09;;;1.72;90.83
9855;BME280;4966;48.112;9.282;2022-11-20T00:39:29;94224.91;;;1.81;90.59
9855;BME280;4966;48.112;9.282;2022-11-20T00:41:55;94224.91;;;1.81;90.71
9855;BME280;4966;48.112;9.282;2022-11-20T00:44:20;94220.56;;;1.85;90.16
9855;BME280;4966;48.112;9.282;2022-11-20T00:46:45;94225.59;;;1.86;89.37
9855;BME280;4966;48.112;9.282;2022-11-20T00:49:11;94227.44;;;2.05;89.11
9855;BME280;4966;48.112;9.282;2022-11-20T00:51:36;94235.53;;;1.86;89.15
9855;BME280;4966;48.112;9.282;2022-11-20T00:54:01;94237.91;;;1.74;88.87
9855;BME280;4966;48.112;9.282;2022-11-20T00:56:27;94229.66;;;1.70;88.84
9855;BME280;4966;48.112;9.282;2022-11-20T00:58:53;94227.44;;;1.72;88.83
9855;BME280;4966;48.112;9.282;2022-11-20T01:01:20;94228.66;;;1.47;89.55
9855;BME280;4966;48.112;9.282;2022-11-20T01:03:48;94239.09;;;1.48;89.07
9855;BME280;4966;48.112;9.282;2022-11-20T01:06:22;94240.97;;;1.48;88.59
9855;BME280;4966;48.112;9.282;2022-11-20T01:08:49;94243.44;;;1.63;88.01
9855;BME280;4966;48.112;9.282;2022-11-20T01:11:23;94246.31;;;1.48;87.79
9855;BME280;4966;48.112;9.282;2022-11-20T01:13:50;94254.25;;;1.39;88.04
9855;BME280;4966;48.112;9.282;2022-11-20T01:16:24;94245.09;;;1.40;88.46
9855;BME280;4966;48.112;9.282;2022-11-20T01:18:52;94247.94;;;1.30;89.32
9855;BME280;4966;48.112;9.282;2022-11-20T01:21:20;94252.00;;;1.27;89.47
9855;BME280;4966;48.112;9.282;2022-11-20T01:23:46;94252.72;;;1.33;89.63
9855;BME280;4966;48.112;9.282;2022-11-20T01:26:18;94258.44;;;1.45;89.17
9855;BME280;4966;48.112;9.282;2022-11-20T01:28:43;94250.53;;;1.54;89.06
9855;BME280;4966;48.112;9.282;2022-11-20T01:31:25;94255.91;;;1.54;89.55
9855;BME280;4966;48.112;9.282;2022-11-20T01:33:54;94255.91;;;1.54;89.93
9855;BME280;4966;48.112;9.282;2022-11-20T01:36:21;94255.72;;;1.64;90.10
9855;BME280;4966;48.112;9.282;2022-11-20T01:38:47;94259.72;;;1.67;88.44
9855;BME280;4966;48.112;9.282;2022-11-20T01:41:15;94258.91;;;1.66;87.29
9855;BME280;4966;48.112;9.282;2022-11-20T01:43:59;94263.22;;;1.48;87.56
9855;BME280;4966;48.112;9.282;2022-11-20T01:46:25;94268.00;;;1.33;87.60
9855;BME280;4966;48.112;9.282;2022-11-20T01:51:24;94262.22;;;1.44;87.83
9855;BME280;4966;48.112;9.282;2022-11-20T01:53:54;94265.81;;;1.54;87.66
9855;BME280;4966;48.112;9.282;2022-11-20T01:56:21;94258.84;;;1.53;88.62
9855;BME280;4966;48.112;9.282;2022-11-20T01:58:52;94258.84;;;1.53;89.40
9855;BME280;4966;48.112;9.282;2022-11-20T02:01:20;94262.72;;;1.65;88.48
9855;BME280;4966;48.112;9.282;2022-11-20T02:03:46;94255.63;;;1.56;88.66
9855;BME280;4966;48.112;9.282;2022-11-20T02:06:48;94252.25;;;1.64;87.71
9855;BME280;4966;48.112;9.282;2022-11-20T02:09:15;94264.53;;;1.51;87.21
9855;BME280;4966;48.112;9.282;2022-11-20T02:11:41;94260.25;;;1.50;87.54
9855;BME280;4966;48.112;9.282;2022-11-20T02:14:06;94259.97;;;1.52;87.26
9855;BME280;4966;48.112;9.282;2022-11-20T02:16:43;94262.72;;;1.46;89.31
9855;BME280;4966;48.112;9.282;2022-11-20T02:19:37;94253.22;;;1.54;89.88
9855;BME280;4966;48.112;9.282;2022-11-20T02:22:09;94257.56;;;1.50;90.50
9855;BME280;4966;48.112;9.282;2022-11-20T02:24:39;94253.38;;;1.77;89.50
9855;BME280;4966;48.112;9.282;2022-11-20T02:27:09;94268.59;;;1.81;89.54
9855;BME280;4966;48.112;9.282;2022-11-20T02:32:25;94262.41;;;1.48;89.59
9855;BME280;4966;48.112;9.282;2022-11-20T02:34:51;94258.06;;;1.71;87.99
9855;BME280;4966;48.112;9.282;2022-11-20T02:37:17;94265.38;;;1.65;89.88
9855;BME280;4966;48.112;9.282;2022-11-20T02:39:45;94260.88;;;1.80;90.74
9855;BME280;4966;48.112;9.282;2022-11-20T02:42:11;94261.72;;;1.94;90.91
9855;BME280;4966;48.112;9.282;2022-11-20T02:44:36;94261.91;;;1.98;92.44
9855;BME280;4966;48.112;9.282;2022-11-20T02:47:02;94262.66;;;1.84;94.81
9855;BME280;4966;48.112;9.282;2022-11-20T02:49:27;94256.44;;;2.03;94.55
9855;BME280;4966;48.112;9.282;2022-11-20T02:51:52;94256.63;;;2.25;93.86
9855;BME280;4966;48.112;9.282;2022-11-20T02:54:18;94263.97;;;2.33;92.98
9855;BME280;4966;48.112;9.282;2022-11-20T02:56:43;94250.69;;;2.42;93.15
9855;BME280;4966;48.112;9.282;2022-11-20T02:59:09;94252.56;;;2.55;92.82
9855;BME280;4966;48.112;9.282;2022-11-20T03:01:35;94257.03;;;2.60;92.62
9855;BME280;4966;48.112;9.282;2022-11-20T03:04:00;94264.56;;;2.30;94.13
9855;BME280;4966;48.112;9.282;2022-11-20T03:06:26;94264.81;;;2.75;92.15
9855;BME280;4966;48.112;9.282;2022-11-20T03:08:51;94265.00;;;2.79;91.69
9855;BME280;4966;48.112;9.282;2022-11-20T03:11:17;94268.47;;;2.80;92.10
9855;BME280;4966;48.112;9.282;2022-11-20T03:13:42;94275.03;;;2.60;93.52
9855;BME280;4966;48.112;9.282;2022-11-20T03:16:15;94260.63;;;2.55;94.61
9855;BME280;4966;48.112;9.282;2022-11-20T03:18:41;94259.22;;;2.72;93.78
9855;BME280;4966;48.112;9.282;2022-11-20T03:21:08;94262.03;;;2.81;93.09
9855;BME280;4966;48.112;9.282;2022-11-20T03:23:34;94257.13;;;2.96;92.56
9855;BME280;4966;48.112;9.282;2022-11-20T03:28:32;94248.19;;;2.87;92.88
9855;BME280;4966;48.112;9.282;2022-11-20T03:30:58;94245.09;;;3.08;92.22
9855;BME280;4966;48.112;9.282;2022-11-20T03:33:23;94253.94;;;3.08;92.28
9855;BME280;4966;48.112;9.282;2022-11-20T03:35:49;94259.28;;;3.22;91.32
9855;BME280;4966;48.112;9.282;2022-11-20T03:38:14;94251.94;;;3.14;92.34
9855;BME280;4966;48.112;9.282;2022-11-20T03:40:39;94257.50;;;3.17;91.61
9855;BME280;4966;48.112;9.282;2022-11-20T03:43:04;94257.22;;;3.19;92.12
9855;BME280;4966;48.112;9.282;2022-11-20T03:45:30;94262.00;;;3.08;91.57
9855;BME280;4966;48.112;9.282;2022-11-20T03:47:55;94260.84;;;3.37;91.65
9855;BME280;4966;48.112;9.282;2022-11-20T03:50:20;94262.78;;;3.23;91.97
9855;BME280;4966;48.112;9.282;2022-11-20T03:52:46;94255.47;;;3.37;91.05
9855;BME280;4966;48.112;9.282;2022-11-20T03:55:11;94250.63;;;3.25;91.51
9855;BME280;4966;48.112;9.282;2022-11-20T03:57:37;94241.59;;;3.57;90.14
9855;BME280;4966;48.112;9.282;2022-11-20T04:00:03;94246.59;;;3.50;90.17
9855;BME280;4966;48.112;9.282;2022-11-20T04:02:29;94248.16;;;3.51;90.68
9855;BME280;4966;48.112;9.282;2022-11-20T04:04:54;94246.16;;;3.57;90.65
9855;BME280;4966;48.112;9.282;2022-11-20T04:07:19;94243.09;;;3.50;90.68
9855;BME280;4966;48.112;9.282;2022-11-20T04:09:45;94248.41;;;3.63;90.90
9855;BME280;4966;48.112;9.282;2022-11-20T04:12:10;94253.63;;;3.60;91.25
9855;BME280;4966;48.112;9.282;2022-11-20T04:14:35;94248.13;;;3.65;91.10
9855;BME280;4966;48.112;9.282;2022-11-20T04:17:03;94244.66;;;3.65;91.79
9855;BME280;4966;48.112;9.282;2022-11-20T04:19:28;94243.16;;;3.58;91.48
9855;BME280;4966;48.112;9.282;2022-11-20T04:21:53;94244.16;;;3.62;90.71
9855;BME280;4966;48.112;9.282;2022-11-20T04:24:19;94237.25;;;3.34;92.10
9855;BME280;4966;48.112;9.282;2022-11-20T04:26:44;94236.25;;;3.44;92.74
9855;BME280;4966;48.112;9.282;2022-11-20T04:29:11;94234.75;;;3.37;92.67
9855;BME280;4966;48.112;9.282;2022-11-20T04:31:36;94236.84;;;3.40;93.53
9855;BME280;4966;48.112;9.282;2022-11-20T04:34:03;94233.84;;;3.42;93.79
9855;BME280;4966;48.112;9.282;2022-11-20T04:36:30;94244.94;;;3.63;92.77
9855;BME280;4966;48.112;9.282;2022-11-20T04:39:02;94235.34;;;3.48;93.63
9855;BME280;4966;48.112;9.282;2022-11-20T04:41:30;94237.84;;;3.67;93.46
9855;BME280;4966;48.112;9.282;2022-11-20T04:43:58;94238.41;;;3.19;95.73
9855;BME280;4966;48.112;9.282;2022-11-20T04:46:25;94234.38;;;3.30;95.98
9855;BME280;4966;48.112;9.282;2022-11-20T04:48:52;94239.91;;;3.48;94.92
9855;BME280;4966;48.112;9.282;2022-11-20T04:51:17;94241.00;;;3.47;95.46
9855;BME280;4966;48.112;9.282;2022-11-20T04:53:43;94245.13;;;3.67;93.96
9855;BME280;4966;48.112;9.282;2022-11-20T04:56:10;94243.94;;;3.59;94.20
9855;BME280;4966;48.112;9.282;2022-11-20T04:58:37;94250.09;;;3.37;95.93
9855;BME280;4966;48.112;9.282;2022-11-20T05:03:28;94244.13;;;3.40;96.41
9855;BME280;4966;48.112;9.282;2022-11-20T05:05:53;94248.56;;;3.45;96.15
9855;BME280;4966;48.112;9.282;2022-11-20T05:08:19;94257.59;;;3.62;95.44
9855;BME280;4966;48.112;9.282;2022-11-20T05:10:44;94260.09;;;3.59;95.62
9855;BME280;4966;48.112;9.282;2022-11-20T05:13:10;94262.97;;;3.85;94.02
9855;BME280;4966;48.112;9.282;2022-11-20T05:15:35;94261.88;;;3.63;95.11
9855;BME280;4966;48.112;9.282;2022-11-20T05:18:00;94250.06;;;3.51;95.54
9855;BME280;4966;48.112;9.282;2022-11-20T05:20:26;94252.34;;;3.80;94.56
9855;BME280;4966;48.112;9.282;2022-11-20T05:22:51;94257.47;;;3.68;94.46
9855;BME280;4966;48.112;9.282;2022-11-20T05:25:17;94257.50;;;3.54;95.21
9855;BME280;4966;48.112;9.282;2022-11-20T05:27:42;94254.03;;;3.53;95.30
9855;BME280;4966;48.112;9.282;2022-11-20T05:30:08;94255.97;;;3.39;96.11
9855;BME280;4966;48.112;9.282;2022-11-20T05:32:34;94252.00;;;3.59;95.27
9855;BME280;4966;48.112;9.282;2022-11-20T05:34:59;94248.44;;;3.27;96.29
9855;BME280;4966;48.112;9.282;2022-11-20T05:37:24;94240.78;;;3.79;93.54
9855;BME280;4966;48.112;9.282;2022-11-20T05:39:50;94253.56;;;3.74;93.40
9855;BME280;4966;48.112;9.282;2022-11-20T05:42:15;94254.19;;;3.93;92.22
9855;BME280;4966;48.112;9.282;2022-11-20T05:44:59;94239.47;;;3.54;93.75
9855;BME280;4966;48.112;9.282;2022-11-20T05:47:26;94249.31;;;3.36;94.18
9855;BME280;4966;48.112;9.282;2022-11-20T05:49:52;94249.03;;;3.24;94.15
9855;BME280;4966;48.112;9.282;2022-11-20T05:52:17;94244.53;;;3.33;94.42
9855;BME280;4966;48.112;9.282;2022-11-20T05:54:43;94234.72;;;3.51;93.35
9855;BME280;4966;48.112;9.282;2022-11-20T05:57:08;94244.50;;;3.47;93.65
9855;BME280;4966;48.112;9.282;2022-11-20T05:59:34;94239.47;;;3.18;94.10
9855;BME280;4966;48.112;9.282;2022-11-20T06:01:59;94246.72;;;3.31;92.86
9855;BME280;4966;48.112;9.282;2022-11-20T06:04:24;94248.91;;;3.29;92.92
9855;BME280;4966;48.112;9.282;2022-11-20T06:06:50;94240.13;;;3.37;91.46
9855;BME280;4966;48.112;9.282;2022-11-20T06:09:15;94235.25;;;3.39;90.78
9855;BME280;4966;48.112;9.282;2022-11-20T06:11:40;94240.59;;;3.17;91.93
9855;BME280;4966;48.112;9.282;2022-11-20T06:14:06;94240.97;;;3.24;90.88
9855;BME280;4966;48.112;9.282;2022-11-20T06:16:31;94244.94;;;3.27;89.93
9855;BME280;4966;48.112;9.282;2022-11-20T06:18:56;94244.84;;;3.32;89.47
9855;BME280;4966;48.112;9.282;2022-11-20T06:21:22;94239.81;;;3.16;89.60
9855;BME280;4966;48.112;9.282;2022-11-20T06:23:49;94240.97;;;3.24;89.54
9855;BME280;4966;48.112;9.282;2022-11-20T06:26:20;94240.75;;;3.20;88.45
9855;BME280;4966;48.112;9.282;2022-11-20T06:28:46;94245.19;;;2.89;90.71
9855;BME280;4966;48.112;9.282;2022-11-20T06:31:14;94245.88;;;2.94;89.43
9855;BME280;4966;48.112;9.282;2022-11-20T06:33:40;94253.66;;;2.96;89.27
9855;BME280;4966;48.112;9.282;2022-11-20T06:36:06;94242.50;;;2.89;90.25
9855;BME280;4966;48.112;9.282;2022-11-20T06:38:31;94246.59;;;2.86;89.62
9855;BME280;4966;48.112;9.282;2022-11-20T06:40:57;94258.44;;;2.85;90.31
9855;BME280;4966;48.112;9.282;2022-11-20T06:43:23;94264.22;;;2.79;90.07
9855;BME280;4966;48.112;9.282;2022-11-20T06:45:55;94254.06;;;2.62;92.13
9855;BME280;4966;48.112;9.282;2022-11-20T06:48:22;94261.13;;;2.71;91.36
9855;BME280;4966;48.112;9.282;2022-11-20T06:50:48;94264.59;;;2.58;92.93
9855;BME280;4966;48.112;9.282;2022-11-20T06:53:14;94258.44;;;2.71;92.56
9855;BME280;4966;48.112;9.282;2022-11-20T06:55:43;94270.47;;;2.60;92.98
9855;BME280;4966;48.112;9.282;2022-11-20T06:58:09;94274.16;;;2.64;93.45
9855;BME280;4966;48.112;9.282;2022-11-20T07:00:35;94268.16;;;2.53;93.90
9855;BME280;4966;48.112;9.282;2022-11-20T07:03:08;94263.50;;;2.73;92.61
9855;BME280;4966;48.112;9.282;2022-11-20T07:05:34;94262.13;;;2.62;93.78
9855;BME280;4966;48.112;9.282;2022-11-20T07:08:00;94279.72;;;2.54;94.03
9855;BME280;4966;48.112;9.282;2022-11-20T07:10:26;94281.50;;;2.72;93.62
9855;BME280;4966;48.112;9.282;2022-11-20T07:12:52;94280.44;;;2.73;94.09
9855;BME280;4966;48.112;9.282;2022-11-20T07:15:20;94283.22;;;2.96;92.92
9855;BME280;4966;48.112;9.282;2022-11-20T07:17:45;94282.72;;;2.66;94.67
9855;BME280;4966;48.112;9.282;2022-11-20T07:20:11;94290.28;;;2.78;95.14
9855;BME280;4966;48.112;9.282;2022-11-20T07:22:37;94294.44;;;2.84;94.85
9855;BME280;4966;48.112;9.282;2022-11-20T07:25:03;94300.03;;;2.74;95.65
9855;BME280;4966;48.112;9.282;2022-11-20T07:27:29;94299.13;;;3.06;95.41
9855;BME280;4966;48.112;9.282;2022-11-20T07:29:55;94301.00;;;3.19;94.98
9855;BME280;4966;48.112;9.282;2022-11-20T07:32:21;94291.44;;;3.27;94.28
9855;BME280;4966;48.112;9.282;2022-11-20T07:34:46;94295.03;;;3.23;94.45
9855;BME280;4966;48.112;9.282;2022-11-20T07:37:12;94291.22;;;3.37;93.85
9855;BME280;4966;48.112;9.282;2022-11-20T07:39:37;94294.41;;;3.39;94.23
9855;BME280;4966;48.112;9.282;2022-11-20T07:42:03;94296.69;;;3.46;94.18
9855;BME280;4966;48.112;9.282;2022-11-20T07:44:28;94299.22;;;3.65;93.64
9855;BME280;4966;48.112;9.282;2022-11-20T07:46:54;94297.72;;;3.73;93.28
9855;BME280;4966;48.112;9.282;2022-11-20T07:49:19;94289.41;;;4.05;92.61
9855;BME280;4966;48.112;9.282;2022-11-20T07:51:45;94290.31;;;4.23;91.44
9855;BME280;4966;48.112;9.282;2022-11-20T07:54:10;94287.06;;;4.35;91.93
9855;BME280;4966;48.112;9.282;2022-11-20T07:56:35;94294.50;;;4.61;91.42
9855;BME280;4966;48.112;9.282;2022-11-20T07:59:01;94292.91;;;4.60;90.70
9855;BME280;4966;48.112;9.282;2022-11-20T08:01:26;94301.50;;;4.39;91.20
9855;BME280;4966;48.112;9.282;2022-11-20T08:03:51;94303.41;;;4.70;90.23
9855;BME280;4966;48.112;9.282;2022-11-20T08:06:17;94285.44;;;4.57;90.37
9855;BME280;4966;48.112;9.282;2022-11-20T08:08:44;94289.19;;;4.78;89.87
9855;BME280;4966;48.112;9.282;2022-11-20T08:11:10;94296.25;;;4.65;89.84
9855;BME280;4966;48.112;9.282;2022-11-20T08:13:54;94305.31;;;4.38;91.18
9855;BME280;4966;48.112;9.282;2022-11-20T08:16:49;94303.34;;;4.53;91.38
9855;BME280;4966;48.112;9.282;2022-11-20T08:19:16;94298.59;;;4.89;90.42
9855;BME280;4966;48.112;9.282;2022-11-20T08:21:43;94293.44;;;5.10;88.78
9855;BME280;4966;48.112;9.282;2022-11-20T08:24:09;94300.25;;;5.08;89.50
9855;BME280;4966;48.112;9.282;2022-11-20T08:26:36;94295.44;;;4.96;89.69
9855;BME280;4966;48.112;9.282;2022-11-20T08:29:03;94302.94;;;5.08;89.10
9855;BME280;4966;48.112;9.282;2022-11-20T08:31:28;94307.97;;;4.92;89.48
9855;BME280;4966;48.112;9.282;2022-11-20T08:33:54;94307.88;;;4.75;90.47
9855;BME280;4966;48.112;9.282;2022-11-20T08:36:20;94310.25;;;4.76;90.31
9855;BME280;4966;48.112;9.282;2022-11-20T08:38:54;94308.59;;;4.89;90.30
9855;BME280;4966;48.112;9.282;2022-11-20T08:41:20;94308.41;;;4.85;90.88
9855;BME280;4966;48.112;9.282;2022-11-20T08:43:54;94308.34;;;5.08;89.21
9855;BME280;4966;48.112;9.282;2022-11-20T08:46:20;94312.47;;;5.14;88.75
9855;BME280;4966;48.112;9.282;2022-11-20T08:48:46;94307.59;;;5.25;88.39
9855;BME280;4966;48.112;9.282;2022-11-20T08:51:12;94299.69;;;5.37;88.04
9855;BME280;4966;48.112;9.282;2022-11-20T08:53:38;94304.56;;;5.26;88.09
9855;BME280;4966;48.112;9.282;2022-11-20T08:56:04;94295.06;;;5.29;88.39
9855;BME280;4966;48.112;9.282;2022-11-20T08:58:29;94298.38;;;5.26;89.04
9855;BME280;4966;48.112;9.282;2022-11-20T09:00:54;94299.88;;;5.49;88.33
9855;BME280;4966;48.112;9.282;2022-11-20T09:03:20;94308.16;;;5.88;85.37
9855;BME280;4966;48.112;9.282;2022-11-20T09:05:45;94308.50;;;6.12;83.61
9855;BME280;4966;48.112;9.282;2022-11-20T09:08:11;94310.25;;;6.26;82.52
9855;BME280;4966;48.112;9.282;2022-11-20T09:10:36;94310.84;;;6.57;81.31
9855;BME280;4966;48.112;9.282;2022-11-20T09:13:05;94308.63;;;6.51;80.23
9855;BME280;4966;48.112;9.282;2022-11-20T09:15:30;94309.53;;;6.72;80.17
9855;BME280;4966;48.112;9.282;2022-11-20T09:18:01;94313.84;;;6.56;80.73
9855;BME280;4966;48.112;9.282;2022-11-20T09:20:28;94300.56;;;6.07;82.40
9855;BME280;4966;48.112;9.282;2022-11-20T09:22:55;94312.00;;;6.22;83.65
9855;BME280;4966;48.112;9.282;2022-11-20T09:25:20;94307.09;;;6.24;81.09
9855;BME280;4966;48.112;9.282;2022-11-20T09:27:46;94303.25;;;6.25;82.02
9855;BME280;4966;48.112;9.282;2022-11-20T09:30:12;94305.66;;;6.17;81.85
9855;BME280;4966;48.112;9.282;2022-11-20T09:32:39;94313.56;;;5.79;83.16
9855;BME280;4966;48.112;9.282;2022-11-20T09:35:04;94313.25;;;5.81;84.17
9855;BME280;4966;48.112;9.282;2022-11-20T09:37:30;94318.47;;;5.68;84.52
9855;BME280;4966;48.112;9.282;2022-11-20T09:39:55;94309.75;;;5.71;85.25
9855;BME280;4966;48.112;9.282;2022-11-20T09:42:35;94311.34;;;5.90;85.09
9855;BME280;4966;48.112;9.282;2022-11-20T09:50:33;94302.78;;;5.70;85.21
9855;BME280;4966;48.112;9.282;2022-11-20T09:55:45;94308.06;;;6.02;84.27
9855;BME280;4966;48.112;9.282;2022-11-20T10:01:19;94320.81;;;6.83;81.44
9855;BME280;4966;48.112;9.282;2022-11-20T10:03:56;94312.75;;;6.66;81.66
9855;BME280;4966;48.112;9.282;2022-11-20T10:06:29;94305.44;;;6.66;81.23
9855;BME280;4966;48.112;9.282;2022-11-20T10:09:03;94315.28;;;6.53;81.24
9855;BME280;4966;48.112;9.282;2022-11-20T10:11:48;94312.59;;;6.53;81.29
9855;BME280;4966;48.112;9.282;2022-11-20T10:14:49;94308.75;;;6.72;80.91
9855;BME280;4966;48.112;9.282;2022-11-20T10:29:12;94306.53;;;6.65;81.66
9855;BME280;4966;48.112;9.282;2022-11-20T10:31:55;94306.66;;;6.77;82.61
9855;BME280;4966;48.112;9.282;2022-11-20T10:34:26;94312.16;;;6.51;83.25
9855;BME280;4966;48.112;9.282;2022-11-20T10:36:59;94310.41;;;6.38;83.78
9855;BME280;4966;48.112;9.282;2022-11-20T10:39:35;94307.84;;;6.50;84.69
9855;BME280;4966;48.112;9.282;2022-11-20T10:42:02;94307.50;;;6.60;84.39
9855;BME280;4966;48.112;9.282;2022-11-20T10:44:29;94310.72;;;6.45;84.85
9855;BME280;4966;48.112;9.282;2022-11-20T10:47:28;94308.53;;;6.21;87.27
9855;BME280;4966;48.112;9.282;2022-11-20T10:49:58;94309.44;;;6.51;86.61
9855;BME280;4966;48.112;9.282;2022-11-20T10:52:54;94307.84;;;6.59;87.38
9855;BME280;4966;48.112;9.282;2022-11-20T10:55:40;94304.16;;;6.64;86.66
9855;BME280;4966;48.112;9.282;2022-11-20T10:58:14;94298.41;;;6.74;86.63
9855;BME280;4966;48.112;9.282;2022-11-20T11:00:42;94294.97;;;6.38;87.28
9855;BME280;4966;48.112;9.282;2022-11-20T11:03:22;94291.16;;;6.48;88.00
9855;BME280;4966;48.112;9.282;2022-11-20T11:05:59;94291.63;;;6.59;88.89
9855;BME280;4966;48.112;9.282;2022-11-20T11:08:34;94287.97;;;6.55;89.27
9855;BME280;4966;48.112;9.282;2022-11-20T11:11:05;94290.13;;;6.79;88.63
9855;BME280;4966;48.112;9.282;2022-11-20T11:13:34;94290.81;;;6.58;89.07
9855;BME280;4966;48.112;9.282;2022-11-20T11:15:59;94283.25;;;6.90;89.14
9855;BME280;4966;48.112;9.282;2022-11-20T11:18:32;94288.59;;;6.52;90.22
9855;BME280;4966;48.112;9.282;2022-11-20T11:21:03;94281.03;;;6.92;89.80
9855;BME280;4966;48.112;9.282;2022-11-20T11:26:02;94285.78;;;6.95;88.76
9855;BME280;4966;48.112;9.282;2022-11-20T11:28:28;94284.81;;;6.91;87.95
9855;BME280;4966;48.112;9.282;2022-11-20T11:30:54;94279.47;;;6.74;88.49
9855;BME280;4966;48.112;9.282;2022-11-20T11:33:27;94268.88;;;6.98;86.81
9855;BME280;4966;48.112;9.282;2022-11-20T11:38:32;94269.88;;;6.47;89.19
9855;BME280;4966;48.112;9.282;2022-11-20T11:40:59;94267.03;;;6.26;89.41
9855;BME280;4966;48.112;9.282;2022-11-20T11:43:28;94271.66;;;6.90;87.85
9855;BME280;4966;48.112;9.282;2022-11-20T11:54:24;94269.22;;;6.50;87.43
9855;BME280;4966;48.112;9.282;2022-11-20T11:56:51;94267.13;;;7.02;86.03
9855;BME280;4966;48.112;9.282;2022-11-20T12:05:25;94248.41;;;6.89;83.60
9855;BME280;4966;48.112;9.282;2022-11-20T12:11:15;94233.78;;;6.90;82.80
9855;BME280;4966;48.112;9.282;2022-11-20T12:16:23;94237.75;;;6.92;80.90
9855;BME280;4966;48.112;9.282;2022-11-20T12:18:52;94227.72;;;6.93;82.84
9855;BME280;4966;48.112;9.282;2022-11-20T12:34:40;94225.03;;;7.43;75.82
9855;BME280;4966;48.112;9.282;2022-11-20T12:37:17;94219.44;;;7.49;77.42
9855;BME280;4966;48.112;9.282;2022-11-20T12:39:55;94213.97;;;7.57;77.12
9855;BME280;4966;48.112;9.282;2022-11-20T12:46:04;94218.56;;;7.78;75.37
9855;BME280;4966;48.112;9.282;2022-11-20T12:53:33;94218.97;;;7.26;74.98
9855;BME280;4966;48.112;9.282;2022-11-20T12:58:50;94214.09;;;6.80;74.86
9855;BME280;4966;48.112;9.282;2022-11-20T13:02:16;94207.31;;;7.25;75.30
9855;BME280;4966;48.112;9.282;2022-11-20T13:07:11;94208.94;;;7.26;74.22
9855;BME280;4966;48.112;9.282;2022-11-20T13:09:45;94212.75;;;7.46;74.79
9855;BME280;4966;48.112;9.282;2022-11-20T13:12:25;94201.69;;;7.81;72.12
9855;BME280;4966;48.112;9.282;2022-11-20T13:15:05;94199.91;;;7.64;71.89
9855;BME280;4966;48.112;9.282;2022-11-20T13:17:41;94205.97;;;8.15;73.35
9855;BME280;4966;48.112;9.282;2022-11-20T13:20:16;94188.72;;;8.53;70.46
9855;BME280;4966;48.112;9.282;2022-11-20T13:22:47;94196.78;;;7.95;71.37
9855;BME280;4966;48.112;9.282;2022-11-20T13:25:36;94202.31;;;7.78;72.62
9855;BME280;4966;48.112;9.282;2022-11-20T13:30:34;94195.00;;;7.36;72.26
9855;BME280;4966;48.112;9.282;2022-11-20T13:33:07;94180.13;;;7.00;72.65
9855;BME280;4966;48.112;9.282;2022-11-20T13:38:25;94193.91;;;7.08;73.89
9855;BME280;4966;48.112;9.282;2022-11-20T13:40:56;94197.66;;;7.45;73.87
9855;BME280;4966;48.112;9.282;2022-11-20T13:43:35;94196.16;;;7.06;74.68
9855;BME280;4966;48.112;9.282;2022-11-20T13:46:07;94200.78;;;6.75;77.10
9855;BME280;4966;48.112;9.282;2022-11-20T13:48:44;94196.34;;;6.32;80.24
9855;BME280;4966;48.112;9.282;2022-11-20T13:51:15;94193.00;;;6.27;83.16
9855;BME280;4966;48.112;9.282;2022-11-20T13:53:52;94193.34;;;6.25;82.72
9855;BME280;4966;48.112;9.282;2022-11-20T14:01:46;94181.22;;;6.31;83.61
9855;BME280;4966;48.112;9.282;2022-11-20T14:04:17;94182.19;;;6.65;82.48
9855;BME280;4966;48.112;9.282;2022-11-20T14:06:45;94180.28;;;6.27;83.11
9855;BME280;4966;48.112;9.282;2022-11-20T14:09:24;94177.31;;;6.58;83.18
9855;BME280;4966;48.112;9.282;2022-11-20T14:11:50;94166.97;;;6.60;83.08
9855;BME280;4966;48.112;9.282;2022-11-20T14:14:24;94172.03;;;6.71;83.08
9855;BME280;4966;48.112;9.282;2022-11-20T14:16:53;94175.09;;;6.90;83.25
9855;BME280;4966;48.112;9.282;2022-11-20T14:19:30;94167.81;;;7.12;82.77
9855;BME280;4966;48.112;9.282;2022-11-20T14:22:22;94157.31;;;7.31;80.64
9855;BME280;4966;48.112;9.282;2022-11-20T14:24:59;94164.94;;;7.08;81.53
9855;BME280;4966;48.112;9.282;2022-11-20T14:27:25;94153.75;;;6.97;80.67
9855;BME280;4966;48.112;9.282;2022-11-20T14:29:50;94151.94;;;6.80;81.63
9855;BME280;4966;48.112;9.282;2022-11-20T14:32:18;94142.56;;;6.78;82.05
9855;BME280;4966;48.112;9.282;2022-11-20T14:34:46;94151.16;;;6.80;81.00
9855;BME280;4966;48.112;9.282;2022-11-20T14:37:18;94158.63;;;6.74;80.41
9855;BME280;4966;48.112;9.282;2022-11-20T14:39:53;94155.03;;;6.91;79.47
9855;BME280;4966;48.112;9.282;2022-11-20T14:42:24;94156.00;;;6.66;80.26
9855;BME280;4966;48.112;9.282;2022-11-20T14:44:51;94157.56;;;6.67;80.16
9855;BME280;4966;48.112;9.282;2022-11-20T14:47:24;94153.41;;;6.39;79.66
9855;BME280;4966;48.112;9.282;2022-11-20T14:49:52;94151.78;;;6.38;81.24
9855;BME280;4966;48.112;9.282;2022-11-20T14:52:21;94144.56;;;6.22;80.25
9855;BME280;4966;48.112;9.282;2022-11-20T14:54:55;94155.56;;;6.46;79.82
9855;BME280;4966;48.112;9.282;2022-11-20T14:57:32;94152.34;;;6.62;79.69
9855;BME280;4966;48.112;9.282;2022-11-20T15:00:19;94147.53;;;6.29;80.83
9855;BME280;4966;48.112;9.282;2022-11-20T15:02:50;94144.75;;;6.46;80.14
9855;BME280;4966;48.112;9.282;2022-11-20T15:05:17;94137.28;;;6.13;80.64
9855;BME280;4966;48.112;9.282;2022-11-20T15:07:49;94142.75;;;6.34;80.10
9855;BME280;4966;48.112;9.282;2022-11-20T15:13:13;94131.50;;;6.32;80.27
9855;BME280;4966;48.112;9.282;2022-11-20T15:15:49;94134.88;;;6.21;80.49
9855;BME280;4966;48.112;9.282;2022-11-20T15:18:18;94121.41;;;6.03;81.16
9855;BME280;4966;48.112;9.282;2022-11-20T15:20:45;94133.53;;;5.97;81.61